Time;durP1;ratioP1;P1;durP2;ratioP2;P2;SDS_P1;SDS_P2;PMS_P1;PMS_P2;Temp;Humidity;BMP_temperature;BMP_pressure;BME280_temperature;BME280_humidity;BME280_pressure;Samples;Min_cycle;Max_cycle;Signal;HPM_P1;HPM_P2
2023/12/26 00:02:29;;;;;;;0.20;0.20;;;12.40;99.90;;;12.49;100.00;100282.81;5220966;28;20041;-48
2023/12/26 00:05:03;;;;;;;0.20;0.20;;;12.40;99.90;;;12.49;100.00;100285.44;5210990;28;20050;-48
2023/12/26 00:07:36;;;;;;;0.13;0.13;;;12.40;99.90;;;12.48;100.00;100281.06;5226144;28;20045;-49
2023/12/26 00:10:10;;;;;;;0.30;0.30;;;12.40;99.90;;;12.47;100.00;100284.53;5218992;28;20045;-47
2023/12/26 00:12:43;;;;;;;0.10;0.10;;;12.40;99.90;;;12.51;100.00;100281.09;5204996;28;20393;-48
2023/12/26 00:15:17;;;;;;;0.30;0.30;;;12.40;99.90;;;12.51;100.00;100283.72;5219479;28;20144;-49
2023/12/26 00:17:50;;;;;;;0.20;0.20;;;12.40;99.90;;;12.50;100.00;100288.06;5216624;28;20534;-47
2023/12/26 00:20:22;;;;;;;0.22;0.22;;;12.40;99.90;;;12.48;100.00;100279.31;5214241;28;20051;-48
2023/12/26 00:22:55;;;;;;;0.20;0.20;;;12.40;99.90;;;12.48;100.00;100288.91;5207362;28;20463;-49
2023/12/26 00:25:29;;;;;;;0.50;0.30;;;12.40;99.90;;;12.49;100.00;100269.75;5207763;28;20140;-49
2023/12/26 00:28:01;;;;;;;0.22;0.22;;;12.40;99.90;;;12.51;100.00;100288.94;5209768;28;20631;-49
2023/12/26 00:30:34;;;;;;;0.13;0.13;;;12.40;99.90;;;12.49;100.00;100275.84;5211223;28;20045;-48
2023/12/26 00:33:06;;;;;;;0.30;0.30;;;12.40;99.90;;;12.50;100.00;100279.34;5219693;28;20062;-49
2023/12/26 00:35:39;;;;;;;0.32;0.22;;;12.40;99.90;;;12.47;100.00;100285.41;5208791;28;20103;-48
2023/12/26 00:38:11;;;;;;;1.75;0.32;;;12.40;99.90;;;12.49;100.00;100283.69;5213565;28;20128;-48
2023/12/26 00:40:45;;;;;;;0.32;0.32;;;12.40;99.90;;;12.48;100.00;100279.31;5212842;28;20171;-49
2023/12/26 00:43:18;;;;;;;0.28;0.28;;;12.40;99.90;;;12.48;100.00;100283.66;5208630;28;20073;-49
2023/12/26 00:45:50;;;;;;;0.10;0.10;;;12.40;99.90;;;12.48;100.00;100305.47;5218832;28;20151;-48
2023/12/26 00:48:23;;;;;;;0.28;0.28;;;12.40;99.90;;;12.48;100.00;100283.66;5213644;28;20045;-47
2023/12/26 00:50:55;;;;;;;0.30;0.30;;;12.40;99.90;;;12.46;100.00;100301.06;5207843;28;20036;-47
2023/12/26 00:53:28;;;;;;;0.25;0.22;;;12.40;99.90;;;12.42;100.00;100292.28;5213465;28;20737;-49
2023/12/26 00:56:02;;;;;;;0.10;0.10;;;12.40;99.90;;;12.43;100.00;100285.31;5214779;28;20392;-48
2023/12/26 00:58:35;;;;;;;0.20;0.20;;;12.30;99.90;;;12.38;100.00;100282.59;5212435;28;21099;-48
2023/12/26 01:01:07;;;;;;;0.20;0.20;;;12.30;99.90;;;12.38;100.00;100279.09;5207833;28;20050;-47
2023/12/26 01:03:41;;;;;;;3.05;0.32;;;12.30;99.90;;;12.38;100.00;100292.16;5211186;28;20452;-47
2023/12/26 01:06:14;;;;;;;0.20;0.20;;;12.30;99.90;;;12.33;100.00;100279.03;5215108;28;20052;-48
2023/12/26 01:08:47;;;;;;;0.45;0.30;;;12.30;99.90;;;12.32;100.00;100277.25;5210713;28;20827;-49
2023/12/26 01:11:21;;;;;;;1.00;0.32;;;12.30;99.90;;;12.31;100.00;100279.84;5210787;28;20136;-48
2023/12/26 01:13:53;;;;;;;0.40;0.40;;;12.30;99.90;;;12.30;100.00;100280.69;5203662;28;20073;-48
2023/12/26 01:16:27;;;;;;;0.50;0.30;;;12.20;99.90;;;12.24;100.00;100273.63;5203919;28;20254;-48
2023/12/26 01:18:59;;;;;;;0.60;0.45;;;12.20;99.90;;;12.22;100.00;100270.09;5221566;28;20049;-48
2023/12/26 01:21:32;;;;;;;0.30;0.30;;;12.20;99.90;;;12.21;100.00;100270.97;5222199;28;20060;-47
2023/12/26 01:24:05;;;;;;;0.28;0.22;;;12.20;99.90;;;12.18;100.00;100271.75;5199744;28;20133;-48
2023/12/26 01:26:39;;;;;;;1.00;0.13;;;12.20;99.90;;;12.17;100.00;100272.63;5210336;28;20043;-48
2023/12/26 01:29:11;;;;;;;0.28;0.28;;;12.10;99.90;;;12.15;100.00;100256.03;5210651;28;20975;-48
2023/12/26 01:31:44;;;;;;;0.30;0.30;;;12.10;99.90;;;12.12;100.00;100269.00;5213742;28;20121;-47
2023/12/26 01:34:16;;;;;;;0.20;0.20;;;12.10;99.90;;;12.12;100.00;100253.34;5213455;28;20065;-47
2023/12/26 01:36:49;;;;;;;1.27;0.68;;;12.10;99.90;;;12.13;100.00;100257.75;5210381;28;20099;-48
2023/12/26 01:39:21;;;;;;;0.30;0.30;;;12.10;99.90;;;12.13;100.00;100260.34;5212635;28;20049;-48
2023/12/26 01:41:55;;;;;;;0.30;0.30;;;12.00;99.90;;;12.12;100.00;100263.78;5214506;28;20115;-49
2023/12/26 01:44:28;;;;;;;1.52;0.38;;;12.10;99.90;;;12.16;100.00;100251.69;5212859;28;20121;-48
2023/12/26 01:47:01;;;;;;;0.52;0.32;;;12.10;99.90;;;12.11;100.00;100248.97;5212962;28;20041;-49
2023/12/26 01:49:33;;;;;;;0.98;0.40;;;12.10;99.90;;;12.11;100.00;100254.19;5214010;28;20499;-48
2023/12/26 01:52:09;;;;;;;0.57;0.43;;;12.10;99.90;;;12.13;100.00;100254.25;5229335;28;20128;-47
2023/12/26 01:54:41;;;;;;;0.60;0.60;;;12.10;99.90;;;12.15;100.00;100257.78;5208489;28;20041;-49
2023/12/26 01:57:16;;;;;;;0.85;0.50;;;12.10;99.90;;;12.15;100.00;100252.53;5207413;28;20049;-48
2023/12/26 01:59:48;;;;;;;0.32;0.32;;;12.10;99.90;;;12.14;100.00;100254.28;5213000;28;20095;-47
2023/12/26 02:02:21;;;;;;;1.88;0.40;;;12.10;99.90;;;12.11;100.00;100246.34;5219406;28;20052;-48
2023/12/26 02:04:56;;;;;;;0.63;0.50;;;12.10;99.90;;;12.09;100.00;100261.13;5221914;28;20102;-50
2023/12/26 02:07:29;;;;;;;0.38;0.38;;;12.10;99.90;;;12.10;100.00;100255.06;5215904;28;20128;-50
2023/12/26 02:10:03;;;;;;;0.68;0.55;;;12.00;99.90;;;12.08;100.00;100241.09;5213636;28;20042;-48
2023/12/26 02:12:38;;;;;;;0.22;0.22;;;12.10;99.90;;;12.09;100.00;100248.06;5218108;28;20048;-47
2023/12/26 02:15:13;;;;;;;2.03;0.47;;;12.00;99.90;;;12.10;100.00;100252.44;5211020;28;20049;-49
2023/12/26 02:17:46;;;;;;;0.32;0.32;;;12.00;99.90;;;12.10;100.00;100252.44;5217548;28;20064;-48
2023/12/26 02:20:18;;;;;;;0.40;0.40;;;12.00;99.90;;;12.10;100.00;100254.19;5216378;28;20060;-50
2023/12/26 02:22:51;;;;;;;0.30;0.30;;;12.00;99.90;;;12.09;100.00;100261.13;5221946;28;20553;-48
2023/12/26 02:25:25;;;;;;;0.40;0.40;;;12.00;99.90;;;12.07;100.00;100257.63;5219430;28;20041;-48
2023/12/26 02:27:58;;;;;;;0.22;0.22;;;12.00;99.90;;;12.09;100.00;100255.03;5210729;28;20120;-47
2023/12/26 02:30:32;;;;;;;0.13;0.13;;;12.00;99.90;;;12.09;100.00;100262.88;5207903;28;20117;-48
2023/12/26 02:33:06;;;;;;;0.25;0.25;;;12.00;99.90;;;12.05;100.00;100272.34;5218387;28;20045;-47
2023/12/26 02:35:39;;;;;;;0.28;0.20;;;12.00;99.90;;;12.06;100.00;100268.00;5215334;28;20482;-48
2023/12/26 02:38:12;;;;;;;0.85;0.47;;;12.00;99.90;;;12.05;100.00;100277.59;5218024;28;20045;-49
2023/12/26 02:40:51;;;;;;;0.25;0.22;;;12.00;99.90;;;12.03;100.00;100271.47;5220456;28;20041;-47
2023/12/26 02:43:25;;;;;;;0.22;0.22;;;12.00;99.90;;;12.00;100.00;100274.03;5218125;28;20049;-48
2023/12/26 02:45:58;;;;;;;0.13;0.10;;;12.00;99.90;;;11.97;100.00;100284.38;5218143;28;20534;-49
2023/12/26 02:48:30;;;;;;;0.30;0.30;;;11.90;99.90;;;11.98;100.00;100280.03;5216685;28;20559;-48
2023/12/26 02:51:03;;;;;;;0.20;0.13;;;11.90;99.90;;;11.95;100.00;100286.09;5223876;28;20048;-47
2023/12/26 02:53:36;;;;;;;0.80;0.30;;;11.90;99.90;;;11.92;100.00;100268.59;5222731;28;20114;-47
2023/12/26 02:56:10;;;;;;;0.32;0.32;;;11.90;99.90;;;11.89;100.00;100275.53;5220548;28;20076;-47
2023/12/26 02:58:42;;;;;;;0.13;0.13;;;11.90;99.90;;;11.88;100.00;100279.88;5231056;28;20059;-48
2023/12/26 03:01:15;;;;;;;0.40;0.40;;;11.90;99.90;;;11.86;100.00;100265.00;5223062;28;20075;-49
2023/12/26 03:03:47;;;;;;;0.30;0.30;;;11.80;99.90;;;11.84;100.00;100283.25;5215213;28;20084;-49
2023/12/26 03:06:20;;;;;;;1.98;0.30;;;11.80;99.90;;;11.82;100.00;100274.50;5213924;28;20057;-48
2023/12/26 03:08:52;;;;;;;0.30;0.30;;;11.80;99.90;;;11.80;100.00;100286.63;5218429;28;20044;-47
2023/12/26 03:11:27;;;;;;;2.05;0.32;;;11.80;99.90;;;11.79;100.00;100283.97;5214599;28;20068;-47
2023/12/26 03:14:00;;;;;;;0.22;0.22;;;11.80;99.90;;;11.78;100.00;100284.81;5217652;28;20053;-48
2023/12/26 03:16:33;;;;;;;0.35;0.35;;;11.70;99.90;;;11.75;100.00;100297.81;5226853;28;20041;-46
2023/12/26 03:19:07;;;;;;;0.30;0.30;;;11.70;99.90;;;11.73;100.00;100294.25;5217346;28;20049;-48
2023/12/26 03:21:39;;;;;;;0.22;0.22;;;11.70;99.90;;;11.73;100.00;100295.16;5214835;28;20056;-47
2023/12/26 03:24:12;;;;;;;0.40;0.40;;;11.70;99.90;;;11.72;100.00;100300.34;5198483;28;20037;-48
2023/12/26 03:26:46;;;;;;;1.25;0.32;;;11.70;99.90;;;11.71;100.00;100303.81;5211029;28;20050;-47
2023/12/26 03:29:18;;;;;;;0.70;0.20;;;11.70;99.90;;;11.67;100.00;100295.91;5214400;28;20045;-48
2023/12/26 03:31:51;;;;;;;0.30;0.30;;;11.70;99.90;;;11.65;100.00;100297.59;5217500;28;20037;-47
2023/12/26 03:34:23;;;;;;;0.30;0.30;;;11.70;99.90;;;11.64;100.00;100302.78;5210301;28;20048;-50
2023/12/26 03:36:56;;;;;;;0.32;0.32;;;11.60;99.90;;;11.63;100.00;100301.03;5214036;28;20053;-47
2023/12/26 03:39:28;;;;;;;0.30;0.30;;;11.60;99.90;;;11.63;100.00;100308.84;5215784;28;20046;-48
2023/12/26 03:42:02;;;;;;;1.00;0.30;;;11.60;99.90;;;11.63;100.00;100308.84;5212085;28;20128;-49
2023/12/26 03:44:35;;;;;;;0.30;0.30;;;11.60;99.90;;;11.61;100.00;100311.44;5215268;28;20077;-48
2023/12/26 03:47:07;;;;;;;0.13;0.13;;;11.60;99.90;;;11.58;100.00;100308.75;5215557;28;20452;-47
2023/12/26 03:49:40;;;;;;;1.50;0.20;;;11.60;99.90;;;11.54;100.00;100306.00;5214091;28;20052;-47
2023/12/26 03:52:13;;;;;;;0.10;0.10;;;11.50;99.90;;;11.54;100.00;100314.75;5223139;28;20581;-47
2023/12/26 03:54:45;;;;;;;0.93;0.38;;;11.50;99.90;;;11.54;100.00;100312.16;5213997;28;20052;-48
2023/12/26 03:57:19;;;;;;;0.32;0.30;;;11.50;99.90;;;11.52;100.00;100311.22;5211828;28;20049;-48
2023/12/26 03:59:51;;;;;;;0.20;0.20;;;11.50;99.90;;;11.52;100.00;100316.44;5207117;28;20051;-48
2023/12/26 04:02:24;;;;;;;0.20;0.20;;;11.50;99.90;;;11.54;100.00;100319.97;5215288;28;20064;-48
2023/12/26 04:04:57;;;;;;;0.20;0.20;;;11.50;99.90;;;11.53;100.00;100315.56;5214080;28;20044;-47
2023/12/26 04:07:30;;;;;;;1.25;0.25;;;11.50;99.90;;;11.55;100.00;100331.31;5210491;28;20032;-48
2023/12/26 04:10:03;;;;;;;0.20;0.20;;;11.50;99.90;;;11.51;100.00;100330.34;5212578;28;20148;-48
2023/12/26 04:12:37;;;;;;;0.30;0.30;;;11.50;99.90;;;11.51;100.00;100334.66;5207763;28;20053;-51
2023/12/26 04:15:10;;;;;;;0.22;0.22;;;11.50;99.90;;;11.50;100.00;100327.69;5215456;28;20095;-48
2023/12/26 04:17:43;;;;;;;0.28;0.28;;;11.50;99.90;;;11.49;100.00;100326.81;5213753;28;20052;-48
2023/12/26 04:20:15;;;;;;;0.25;0.25;;;11.50;99.90;;;11.49;100.00;100334.66;5219491;28;20053;-47
2023/12/26 04:22:48;;;;;;;0.38;0.32;;;11.50;99.90;;;11.47;100.00;100325.88;5215952;28;20076;-49
2023/12/26 04:25:22;;;;;;;0.30;0.30;;;11.40;99.90;;;11.47;100.00;100325.88;5214672;28;20049;-48
2023/12/26 04:27:56;;;;;;;0.20;0.20;;;11.40;99.90;;;11.47;100.00;100331.09;5216392;28;20140;-48
2023/12/26 04:30:29;;;;;;;0.32;0.32;;;11.50;99.90;;;11.47;100.00;100333.69;5229399;28;20064;-48
2023/12/26 04:33:02;;;;;;;0.15;0.15;;;11.40;99.90;;;11.48;100.00;100339.84;5212410;28;20164;-49
2023/12/26 04:35:35;;;;;;;0.20;0.20;;;11.40;99.90;;;11.48;100.00;100340.72;5219047;28;20509;-48
2023/12/26 04:38:08;;;;;;;0.17;0.17;;;11.40;99.90;;;11.47;100.00;100338.91;5215311;28;20441;-47
2023/12/26 04:40:40;;;;;;;0.20;0.20;;;11.40;99.90;;;11.46;100.00;100347.59;5217450;28;20049;-47
2023/12/26 04:43:17;;;;;;;0.13;0.13;;;11.40;99.90;;;11.45;100.00;100340.63;5210213;28;20052;-49
2023/12/26 04:45:49;;;;;;;0.30;0.30;;;11.40;99.90;;;11.44;100.00;100344.09;5217768;28;20072;-48
2023/12/26 04:48:22;;;;;;;0.80;0.20;;;11.40;99.90;;;11.44;100.00;100333.66;5211734;28;20453;-47
2023/12/26 04:50:54;;;;;;;0.10;0.10;;;11.40;99.90;;;11.46;100.00;100357.16;5221647;28;20487;-47
2023/12/26 04:53:27;;;;;;;0.10;0.10;;;11.40;99.90;;;11.46;100.00;100351.94;5215928;28;20473;-47
2023/12/26 04:55:59;;;;;;;0.30;0.30;;;11.40;99.90;;;11.47;100.00;100362.41;5213666;28;20041;-48
2023/12/26 04:58:33;;;;;;;0.13;0.13;;;11.40;99.90;;;11.45;100.00;100358.91;5211564;28;20033;-47
2023/12/26 05:01:06;;;;;;;0.25;0.25;;;11.40;99.90;;;11.45;100.00;100377.16;5211009;28;20038;-49
2023/12/26 05:03:39;;;;;;;0.35;0.30;;;11.40;99.90;;;11.45;100.00;100363.22;5218685;28;20052;-48
2023/12/26 05:06:12;;;;;;;1.60;0.60;;;11.40;99.90;;;11.44;100.00;100378.00;5210387;28;20517;-48
2023/12/26 05:08:45;;;;;;;0.63;0.22;;;11.40;99.90;;;11.45;100.00;100392.81;5227062;28;20050;-47
2023/12/26 05:11:24;;;;;;;0.13;0.13;;;11.40;99.90;;;11.45;100.00;100390.22;5216078;28;20048;-48
2023/12/26 05:13:58;;;;;;;0.65;0.30;;;11.40;99.90;;;11.45;100.00;100392.81;5208827;28;20036;-47
2023/12/26 05:16:30;;;;;;;0.20;0.20;;;11.40;99.90;;;11.47;100.00;100396.34;5212824;28;20081;-48
2023/12/26 05:19:03;;;;;;;0.47;0.22;;;11.40;99.90;;;11.49;100.00;100393.78;5208130;28;20496;-48
2023/12/26 05:21:36;;;;;;;0.20;0.20;;;11.40;99.90;;;11.49;100.00;100389.47;5224084;28;20049;-47
2023/12/26 05:24:09;;;;;;;1.10;0.35;;;11.40;99.90;;;11.49;100.00;100392.06;5217632;28;20038;-49
2023/12/26 05:26:43;;;;;;;0.20;0.20;;;11.50;99.90;;;11.49;100.00;100399.00;5210988;28;20052;-47
2023/12/26 05:29:17;;;;;;;0.30;0.20;;;11.40;99.90;;;11.49;100.00;100415.56;5207303;28;20037;-47
2023/12/26 05:31:50;;;;;;;0.68;0.22;;;11.50;99.90;;;11.49;100.00;100415.56;5223706;28;20056;-48
2023/12/26 05:34:22;;;;;;;0.25;0.20;;;11.40;99.90;;;11.49;100.00;100430.34;5212054;28;20069;-49
2023/12/26 05:36:55;;;;;;;0.25;0.25;;;11.50;99.90;;;11.49;100.00;100414.69;5210147;28;20045;-48
2023/12/26 05:39:28;;;;;;;0.20;0.13;;;11.50;99.90;;;11.48;100.00;100419.00;5216172;28;20041;-48
2023/12/26 05:42:02;;;;;;;0.32;0.32;;;11.50;99.90;;;11.50;100.00;100427.75;5217228;28;20040;-49
2023/12/26 05:44:36;;;;;;;0.50;0.30;;;11.50;99.90;;;11.54;100.00;100429.63;5207181;28;20127;-48
2023/12/26 05:47:09;;;;;;;0.43;0.32;;;11.50;99.90;;;11.50;100.00;100432.97;5214252;28;20045;-47
2023/12/26 05:49:42;;;;;;;0.20;0.20;;;11.50;99.90;;;11.50;100.00;100440.81;5216671;28;20132;-48
2023/12/26 05:52:15;;;;;;;0.80;0.45;;;11.50;99.90;;;11.53;100.00;100451.31;5215861;28;20079;-47
2023/12/26 05:54:47;;;;;;;0.40;0.40;;;11.50;99.90;;;11.53;100.00;100451.31;5212495;28;20416;-49
2023/12/26 05:57:20;;;;;;;0.35;0.35;;;11.50;99.90;;;11.52;100.00;100466.94;5210516;28;20080;-47
2023/12/26 05:59:54;;;;;;;0.22;0.22;;;11.50;99.90;;;11.50;100.00;100473.84;5215320;28;20044;-48
2023/12/26 06:02:26;;;;;;;0.50;0.50;;;11.50;99.90;;;11.50;100.00;100469.53;5215757;28;20040;-47
2023/12/26 06:04:59;;;;;;;0.43;0.38;;;11.50;99.90;;;11.48;100.00;100466.00;5214731;28;20037;-48
2023/12/26 06:07:31;;;;;;;1.52;0.50;;;11.50;99.90;;;11.47;100.00;100468.53;5208436;28;20050;-47
2023/12/26 06:10:05;;;;;;;2.22;0.35;;;11.40;99.90;;;11.47;100.00;100474.66;5211462;28;20052;-50
2023/12/26 06:12:39;;;;;;;0.22;0.22;;;11.40;99.90;;;11.46;100.00;100478.09;5213479;28;20045;-48
2023/12/26 06:15:13;;;;;;;0.28;0.28;;;11.40;99.90;;;11.45;100.00;100486.78;5211692;28;20102;-48
2023/12/26 06:17:46;;;;;;;0.55;0.32;;;11.40;99.90;;;11.42;100.00;100494.53;5204717;28;20756;-48
2023/12/26 06:20:21;;;;;;;0.50;0.50;;;11.40;99.90;;;11.40;100.00;100497.09;5215402;28;20590;-47
2023/12/26 06:22:54;;;;;;;0.52;0.52;;;11.40;99.90;;;11.39;100.00;100502.28;5215519;28;20033;-47
2023/12/26 06:25:26;;;;;;;0.80;0.35;;;11.40;99.90;;;11.37;100.00;100506.59;5213665;28;20140;-48
2023/12/26 06:27:58;;;;;;;1.08;0.40;;;11.40;99.90;;;11.37;100.00;100502.25;5213454;28;20053;-49
2023/12/26 06:30:32;;;;;;;0.35;0.35;;;11.40;99.90;;;11.34;100.00;100514.31;5214960;28;20053;-48
2023/12/26 06:33:05;;;;;;;0.22;0.22;;;11.40;99.90;;;11.33;100.00;100522.97;5218457;28;20052;-49
2023/12/26 06:35:39;;;;;;;4.38;0.73;;;11.30;99.90;;;11.31;100.00;100528.16;5215199;28;20103;-49
2023/12/26 06:38:13;;;;;;;0.43;0.43;;;11.30;99.90;;;11.32;100.00;100534.28;5215015;28;20443;-48
2023/12/26 06:40:45;;;;;;;0.80;0.32;;;11.30;99.90;;;11.33;100.00;100525.59;5226060;28;20088;-49
2023/12/26 06:43:18;;;;;;;1.42;0.80;;;11.30;99.90;;;11.31;100.00;100535.13;5211474;28;20049;-48
2023/12/26 06:45:52;;;;;;;2.08;0.43;;;11.30;99.90;;;11.28;100.00;100532.41;5213390;28;20054;-48
2023/12/26 06:48:25;;;;;;;0.55;0.45;;;11.30;99.90;;;11.27;100.00;100522.81;5216935;28;20044;-49
2023/12/26 06:50:57;;;;;;;1.48;0.50;;;11.30;99.90;;;11.26;100.00;100536.69;5213944;28;20102;-48
2023/12/26 06:53:30;;;;;;;2.30;0.60;;;11.20;99.90;;;11.26;100.00;100539.31;5212128;28;20041;-48
2023/12/26 06:56:05;;;;;;;1.60;0.57;;;11.30;99.90;;;11.24;100.00;100538.41;5218242;28;20048;-47
2023/12/26 06:58:37;;;;;;;3.05;0.50;;;11.20;99.90;;;11.23;100.00;100555.78;5220395;28;20047;-48
2023/12/26 07:01:13;;;;;;;0.85;0.60;;;11.20;99.90;;;11.21;100.00;100559.16;5226932;28;20104;-48
2023/12/26 07:03:45;;;;;;;4.00;0.73;;;11.20;99.90;;;11.22;100.00;100537.47;5226241;28;20052;-48
2023/12/26 07:06:18;;;;;;;3.88;0.80;;;11.20;99.90;;;11.20;100.00;100558.28;5219072;28;20064;-48
2023/12/26 07:08:50;;;;;;;1.10;0.60;;;11.20;99.90;;;11.18;100.00;100556.47;5226060;28;20053;-47
2023/12/26 07:11:23;;;;;;;0.88;0.60;;;11.20;99.90;;;11.18;100.00;100551.28;5211037;28;20056;-48
2023/12/26 07:13:55;;;;;;;2.45;0.90;;;11.20;99.90;;;11.16;100.00;100550.34;5222671;28;20052;-47
2023/12/26 07:16:30;;;;;;;1.08;0.55;;;11.20;99.90;;;11.14;100.00;100561.59;5211280;28;20040;-47
2023/12/26 07:19:02;;;;;;;;;;;11.20;99.90;;;11.15;100.00;100559.91;5211809;28;20041;-47
2023/12/26 07:21:35;;;;;;;2.67;0.63;;;11.10;99.90;;;11.13;100.00;100565.06;5208126;28;19925;-49
2023/12/26 07:24:08;;;;;;;0.50;0.50;;;11.10;99.90;;;11.13;100.00;100575.47;5229332;28;20044;-48
2023/12/26 07:26:41;;;;;;;0.93;0.70;;;11.10;99.90;;;11.14;100.00;100586.81;5215634;28;20049;-48
2023/12/26 07:29:13;;;;;;;0.90;0.85;;;11.10;99.90;;;11.16;100.00;100589.47;5210572;28;20124;-48
2023/12/26 07:31:47;;;;;;;3.22;0.80;;;11.10;99.90;;;11.16;100.00;100598.19;5212578;28;20061;-49
2023/12/26 07:34:20;;;;;;;1.40;0.77;;;11.10;99.90;;;11.13;100.00;100614.63;5218388;28;20053;-47
2023/12/26 07:36:52;;;;;;;7.90;1.33;;;11.10;99.90;;;11.14;100.00;100608.56;5213182;28;20040;-48
2023/12/26 07:39:25;;;;;;;1.20;0.55;;;11.10;99.90;;;11.18;100.00;100606.06;5223541;28;20041;-48
2023/12/26 07:41:59;;;;;;;1.75;0.85;;;11.10;99.90;;;11.18;100.00;100624.31;5219066;28;20042;-47
2023/12/26 07:44:36;;;;;;;3.58;0.73;;;11.20;99.90;;;11.19;100.00;100626.09;5220046;28;20056;-47
2023/12/26 07:47:10;;;;;;;2.15;0.80;;;11.20;99.90;;;11.19;100.00;100632.19;5214510;28;20038;-48
2023/12/26 07:49:42;;;;;;;2.28;0.65;;;11.20;99.90;;;11.19;100.00;100647.84;5220120;28;20172;-48
2023/12/26 07:52:15;;;;;;;2.30;0.70;;;11.20;99.90;;;11.21;100.00;100648.75;5218319;28;20045;-47
2023/12/26 07:54:48;;;;;;;1.70;0.63;;;11.20;99.90;;;11.20;100.00;100652.22;5215493;28;20551;-47
2023/12/26 07:57:20;;;;;;;3.22;0.65;;;11.20;99.90;;;11.20;100.00;100640.88;5217162;28;20071;-48
2023/12/26 07:59:53;;;;;;;1.70;0.70;;;11.20;99.90;;;11.23;100.00;100656.66;5221512;28;20454;-48
2023/12/26 08:02:26;;;;;;;1.30;0.90;;;11.20;99.90;;;11.23;100.00;100656.66;5217672;28;20049;-47
2023/12/26 08:04:59;;;;;;;2.97;0.75;;;11.20;99.90;;;11.22;100.00;100649.66;5217248;28;20045;-48
2023/12/26 08:07:31;;;;;;;2.55;0.93;;;11.20;99.90;;;11.23;100.00;100646.22;5219962;28;20088;-47
2023/12/26 08:10:05;;;;;;;1.05;0.73;;;11.20;99.90;;;11.19;100.00;100660.88;5219890;28;20042;-48
2023/12/26 08:12:37;;;;;;;1.02;0.93;;;11.20;99.90;;;11.19;100.00;100670.44;5214929;28;20053;-47
2023/12/26 08:15:10;;;;;;;3.08;0.80;;;11.20;99.90;;;11.21;100.00;100684.41;5215482;28;20053;-48
2023/12/26 08:17:44;;;;;;;3.90;1.00;;;11.20;99.90;;;11.21;100.00;100694.84;5218755;28;20053;-47
2023/12/26 08:20:16;;;;;;;1.20;0.63;;;11.20;99.90;;;11.22;100.00;100694.03;5218410;28;20037;-47
2023/12/26 08:22:49;;;;;;;0.77;0.73;;;11.20;99.90;;;11.21;100.00;100689.63;5221131;28;20099;-49
2023/12/26 08:25:21;;;;;;;4.13;1.15;;;11.20;99.90;;;11.23;100.00;100703.63;5217413;28;20044;-49
2023/12/26 08:27:54;;;;;;;1.30;0.68;;;11.20;99.90;;;11.25;100.00;100705.44;5213921;28;20042;-48
2023/12/26 08:30:27;;;;;;;1.05;0.70;;;11.20;99.90;;;11.27;100.00;100708.06;5217978;28;20034;-47
2023/12/26 08:33:00;;;;;;;2.30;0.70;;;11.20;99.90;;;11.29;100.00;100716.84;5211593;28;20136;-48
2023/12/26 08:35:34;;;;;;;3.78;1.05;;;11.30;99.90;;;11.30;100.00;100716.00;5214335;28;20049;-47
2023/12/26 08:38:06;;;;;;;3.35;1.00;;;11.30;99.90;;;11.32;100.00;100735.19;5184344;28;20045;-47
2023/12/26 08:40:39;;;;;;;6.65;0.93;;;11.30;99.90;;;11.32;100.00;100729.97;5188735;28;20133;-48
2023/12/26 08:43:11;;;;;;;1.23;0.90;;;11.30;99.90;;;11.32;100.00;100745.63;5216968;28;20419;-47
2023/12/26 08:45:44;;;;;;;3.92;0.90;;;11.30;99.90;;;11.33;100.00;100753.50;5225489;28;20049;-49
2023/12/26 08:48:17;;;;;;;1.38;0.60;;;11.30;99.90;;;11.35;100.00;100746.63;5222412;28;20037;-48
2023/12/26 08:50:50;;;;;;;3.35;0.80;;;11.30;99.90;;;11.37;100.00;100744.94;5213403;28;20075;-49
2023/12/26 08:53:22;;;;;;;4.38;0.88;;;11.30;99.90;;;11.47;100.00;100743.50;5217108;28;20037;-49
2023/12/26 08:55:55;;;;;;;3.08;0.63;;;11.40;99.90;;;11.52;100.00;100762.78;5218328;28;20191;-48
2023/12/26 08:58:31;;;;;;;1.00;0.90;;;11.50;99.90;;;11.55;100.00;100765.50;5213212;28;20504;-48
2023/12/26 09:01:06;;;;;;;1.00;0.73;;;11.50;99.90;;;11.57;100.00;100760.34;5216922;28;20049;-48
2023/12/26 09:03:41;;;;;;;1.77;0.68;;;11.50;99.90;;;11.60;100.00;100769.13;5218010;28;20041;-47
2023/12/26 09:06:13;;;;;;;;;;;11.60;99.90;;;11.64;100.00;100773.59;5213045;28;20706;-48
2023/12/26 09:08:46;;;;;;;4.63;0.75;;;11.60;99.90;;;11.69;100.00;100776.38;5222620;28;19925;-48
2023/12/26 09:11:18;;;;;;;4.50;0.90;;;11.60;99.90;;;11.70;100.00;100770.31;5221713;28;20139;-49
2023/12/26 09:13:51;;;;;;;1.48;0.70;;;11.60;99.90;;;11.73;100.00;100780.81;5214001;28;20479;-49
2023/12/26 09:16:23;;;;;;;1.25;0.63;;;11.70;99.90;;;11.73;100.00;100777.34;5216353;28;20103;-47
2023/12/26 09:18:57;;;;;;;3.03;0.63;;;11.70;99.90;;;11.73;100.00;100790.38;5206652;28;20037;-47
2023/12/26 09:21:30;;;;;;;0.57;0.57;;;11.70;99.90;;;11.74;100.00;100792.19;5213175;28;20072;-47
2023/12/26 09:24:02;;;;;;;4.93;1.13;;;11.70;99.90;;;11.76;100.00;100791.38;5216364;28;20051;-48
2023/12/26 09:26:35;;;;;;;1.38;0.88;;;11.70;99.90;;;11.80;100.00;100803.69;5210008;28;20511;-48
2023/12/26 09:29:09;;;;;;;4.78;0.85;;;11.70;99.90;;;11.89;100.00;100805.72;5193539;28;20053;-48
2023/12/26 09:31:41;;;;;;;4.32;0.90;;;11.80;99.90;;;11.89;100.00;100813.56;5212399;28;20393;-48
2023/12/26 09:34:15;;;;;;;3.03;0.90;;;11.80;99.90;;;11.90;100.00;100815.31;5213542;28;20048;-48
2023/12/26 09:36:48;;;;;;;7.32;1.08;;;11.80;99.90;;;11.88;100.00;100817.00;5202591;28;20052;-48
2023/12/26 09:39:20;;;;;;;2.17;0.80;;;11.80;99.90;;;11.87;100.00;100828.31;5225735;28;20048;-49
2023/12/26 09:41:53;;;;;;;2.35;0.98;;;11.80;99.90;;;11.84;100.00;100826.47;5213198;28;20044;-49
2023/12/26 09:44:26;;;;;;;3.15;0.88;;;11.80;99.90;;;11.79;100.00;100824.53;5210131;28;20083;-47
2023/12/26 09:46:59;;;;;;;3.63;1.10;;;11.70;99.90;;;11.75;100.00;100826.16;5202425;28;21382;-47
2023/12/26 09:49:33;;;;;;;2.20;0.73;;;11.70;99.90;;;11.67;100.00;100841.63;5209012;28;20503;-47
2023/12/26 09:52:10;;;;;;;1.60;0.82;;;11.70;99.90;;;11.65;100.00;100847.59;5213734;28;20139;-49
2023/12/26 09:54:45;;;;;;;3.08;1.25;;;11.60;99.90;;;11.64;100.00;100849.34;5213827;28;20136;-48
2023/12/26 09:57:18;;;;;;;1.83;0.98;;;11.60;99.90;;;11.65;100.00;100863.28;5206502;28;20470;-48
2023/12/26 09:59:52;;;;;;;4.72;0.93;;;11.60;99.90;;;11.66;100.00;100854.59;5209873;28;20049;-49
2023/12/26 10:02:25;;;;;;;3.33;1.08;;;11.60;99.90;;;11.73;100.00;100853.94;5222466;28;20048;-48
2023/12/26 10:04:59;;;;;;;1.23;0.77;;;11.60;99.90;;;11.80;100.00;100857.63;5222340;28;20475;-48
2023/12/26 10:07:31;;;;;;;3.95;0.98;;;11.70;99.90;;;11.85;100.00;100872.63;5223240;28;20053;-49
2023/12/26 10:10:05;;;;;;;2.05;0.63;;;11.70;99.90;;;11.90;100.00;100878.00;5213408;28;20060;-49
2023/12/26 10:12:37;;;;;;;2.83;0.90;;;11.80;99.90;;;11.97;100.00;100887.81;5211531;28;20042;-49
2023/12/26 10:15:11;;;;;;;2.70;0.80;;;11.80;99.90;;;12.05;100.00;100896.75;5222478;28;20096;-48
2023/12/26 10:17:44;;;;;;;3.15;0.80;;;11.90;99.90;;;12.14;100.00;100891.84;5224159;28;20559;-48
2023/12/26 10:20:18;;;;;;;0.98;0.60;;;12.00;99.90;;;12.23;100.00;100889.47;5215965;28;20407;-48
2023/12/26 10:22:51;;;;;;;2.53;0.82;;;12.10;99.90;;;12.31;100.00;100886.19;5218505;28;20140;-48
2023/12/26 10:25:24;;;;;;;4.43;0.85;;;12.20;99.90;;;12.38;100.00;100882.91;5219066;28;20045;-48
2023/12/26 10:27:58;;;;;;;0.85;0.70;;;12.20;99.90;;;12.41;100.00;100883.03;5220557;28;20102;-48
2023/12/26 10:30:30;;;;;;;0.70;0.70;;;12.20;99.90;;;12.41;100.00;100885.63;5217284;28;20072;-48